sensor_id;sensor_type;location;lat;lon;timestamp;P1;durP1;ratioP1;P2;durP2;ratioP2
5483;SDS011;2764;48.794;8.326;2023-09-12T00:00:40;18.23;;;8.20;;
5483;SDS011;2764;48.794;8.326;2023-09-12T00:01:42;14.00;;;8.40;;
5483;SDS011;2764;48.794;8.326;2023-09-12T00:02:44;13.93;;;8.00;;
5483;SDS011;2764;48.794;8.326;2023-09-12T00:03:46;15.70;;;8.00;;
5483;SDS011;2764;48.794;8.326;2023-09-12T00:04:48;11.60;;;7.10;;
5483;SDS011;2764;48.794;8.326;2023-09-12T00:05:55;13.63;;;7.03;;
5483;SDS011;2764;48.794;8.326;2023-09-12T00:06:58;11.73;;;7.80;;
5483;SDS011;2764;48.794;8.326;2023-09-12T00:08:00;12.20;;;7.20;;
5483;SDS011;2764;48.794;8.326;2023-09-12T00:09:02;13.93;;;7.83;;
5483;SDS011;2764;48.794;8.326;2023-09-12T00:10:07;18.17;;;8.37;;
5483;SDS011;2764;48.794;8.326;2023-09-12T00:11:09;15.80;;;8.27;;
5483;SDS011;2764;48.794;8.326;2023-09-12T00:12:16;17.90;;;9.30;;
5483;SDS011;2764;48.794;8.326;2023-09-12T00:13:18;8.93;;;7.30;;
5483;SDS011;2764;48.794;8.326;2023-09-12T00:14:20;11.30;;;7.10;;
5483;SDS011;2764;48.794;8.326;2023-09-12T00:15:22;10.70;;;8.40;;
5483;SDS011;2764;48.794;8.326;2023-09-12T00:16:25;15.23;;;8.63;;
5483;SDS011;2764;48.794;8.326;2023-09-12T00:17:26;15.60;;;7.87;;
5483;SDS011;2764;48.794;8.326;2023-09-12T00:18:28;14.70;;;8.33;;
5483;SDS011;2764;48.794;8.326;2023-09-12T00:19:30;9.83;;;7.60;;
5483;SDS011;2764;48.794;8.326;2023-09-12T00:20:32;13.60;;;8.50;;
5483;SDS011;2764;48.794;8.326;2023-09-12T00:21:34;12.23;;;8.67;;
5483;SDS011;2764;48.794;8.326;2023-09-12T00:22:37;14.43;;;7.80;;
5483;SDS011;2764;48.794;8.326;2023-09-12T00:23:39;9.93;;;7.40;;
5483;SDS011;2764;48.794;8.326;2023-09-12T00:24:41;13.27;;;8.23;;
5483;SDS011;2764;48.794;8.326;2023-09-12T00:25:43;14.03;;;7.67;;
5483;SDS011;2764;48.794;8.326;2023-09-12T00:26:44;13.93;;;8.60;;
5483;SDS011;2764;48.794;8.326;2023-09-12T00:27:46;19.30;;;7.73;;
5483;SDS011;2764;48.794;8.326;2023-09-12T00:28:48;8.27;;;7.40;;
5483;SDS011;2764;48.794;8.326;2023-09-12T00:29:51;16.60;;;8.00;;
5483;SDS011;2764;48.794;8.326;2023-09-12T00:30:53;10.30;;;8.47;;
5483;SDS011;2764;48.794;8.326;2023-09-12T00:31:55;14.07;;;9.20;;
5483;SDS011;2764;48.794;8.326;2023-09-12T00:32:57;11.13;;;7.80;;
5483;SDS011;2764;48.794;8.326;2023-09-12T00:33:59;9.03;;;7.10;;
5483;SDS011;2764;48.794;8.326;2023-09-12T00:35:01;12.70;;;7.90;;
5483;SDS011;2764;48.794;8.326;2023-09-12T00:36:03;13.53;;;7.90;;
5483;SDS011;2764;48.794;8.326;2023-09-12T00:37:05;15.20;;;8.17;;
5483;SDS011;2764;48.794;8.326;2023-09-12T00:38:08;11.47;;;8.17;;
5483;SDS011;2764;48.794;8.326;2023-09-12T00:39:10;15.20;;;7.53;;
5483;SDS011;2764;48.794;8.326;2023-09-12T00:40:12;15.70;;;7.80;;
5483;SDS011;2764;48.794;8.326;2023-09-12T00:41:14;9.00;;;8.13;;
5483;SDS011;2764;48.794;8.326;2023-09-12T00:42:15;9.77;;;8.13;;
5483;SDS011;2764;48.794;8.326;2023-09-12T00:43:17;21.73;;;8.37;;
5483;SDS011;2764;48.794;8.326;2023-09-12T00:44:18;14.00;;;8.30;;
5483;SDS011;2764;48.794;8.326;2023-09-12T00:45:20;10.57;;;8.50;;
5483;SDS011;2764;48.794;8.326;2023-09-12T00:46:22;9.90;;;8.07;;
5483;SDS011;2764;48.794;8.326;2023-09-12T00:47:25;16.80;;;8.10;;
5483;SDS011;2764;48.794;8.326;2023-09-12T00:48:28;14.67;;;9.17;;
5483;SDS011;2764;48.794;8.326;2023-09-12T00:49:31;15.07;;;8.10;;
5483;SDS011;2764;48.794;8.326;2023-09-12T00:50:33;16.23;;;9.13;;
5483;SDS011;2764;48.794;8.326;2023-09-12T00:51:35;16.70;;;8.70;;
5483;SDS011;2764;48.794;8.326;2023-09-12T00:52:38;11.00;;;8.00;;
5483;SDS011;2764;48.794;8.326;2023-09-12T00:53:41;16.63;;;7.90;;
5483;SDS011;2764;48.794;8.326;2023-09-12T00:54:43;14.27;;;8.70;;
5483;SDS011;2764;48.794;8.326;2023-09-12T00:55:46;15.10;;;8.07;;
5483;SDS011;2764;48.794;8.326;2023-09-12T00:56:53;15.07;;;9.10;;
5483;SDS011;2764;48.794;8.326;2023-09-12T00:57:55;16.33;;;8.67;;
5483;SDS011;2764;48.794;8.326;2023-09-12T00:58:57;11.27;;;7.03;;
5483;SDS011;2764;48.794;8.326;2023-09-12T00:59:59;13.17;;;7.70;;
5483;SDS011;2764;48.794;8.326;2023-09-12T01:01:05;18.90;;;8.27;;
5483;SDS011;2764;48.794;8.326;2023-09-12T01:02:07;19.20;;;8.20;;
5483;SDS011;2764;48.794;8.326;2023-09-12T01:03:09;13.13;;;8.10;;
5483;SDS011;2764;48.794;8.326;2023-09-12T01:04:11;16.53;;;8.90;;
5483;SDS011;2764;48.794;8.326;2023-09-12T01:05:33;17.30;;;8.63;;
5483;SDS011;2764;48.794;8.326;2023-09-12T01:06:35;12.60;;;8.80;;
5483;SDS011;2764;48.794;8.326;2023-09-12T01:07:38;12.53;;;8.53;;
5483;SDS011;2764;48.794;8.326;2023-09-12T01:08:40;13.30;;;8.60;;
5483;SDS011;2764;48.794;8.326;2023-09-12T01:09:45;19.80;;;8.53;;
5483;SDS011;2764;48.794;8.326;2023-09-12T01:10:47;12.33;;;8.37;;
5483;SDS011;2764;48.794;8.326;2023-09-12T01:11:51;19.70;;;8.97;;
5483;SDS011;2764;48.794;8.326;2023-09-12T01:12:52;9.57;;;7.50;;
5483;SDS011;2764;48.794;8.326;2023-09-12T01:13:54;8.93;;;7.57;;
5483;SDS011;2764;48.794;8.326;2023-09-12T01:14:56;17.23;;;8.07;;
5483;SDS011;2764;48.794;8.326;2023-09-12T01:15:58;11.27;;;7.50;;
5483;SDS011;2764;48.794;8.326;2023-09-12T01:17:00;10.73;;;8.37;;
5483;SDS011;2764;48.794;8.326;2023-09-12T01:18:04;12.07;;;8.30;;
5483;SDS011;2764;48.794;8.326;2023-09-12T01:19:09;9.73;;;7.87;;
5483;SDS011;2764;48.794;8.326;2023-09-12T01:20:17;18.53;;;7.87;;
5483;SDS011;2764;48.794;8.326;2023-09-12T01:22:08;19.37;;;8.30;;
5483;SDS011;2764;48.794;8.326;2023-09-12T01:24:17;12.83;;;8.50;;
5483;SDS011;2764;48.794;8.326;2023-09-12T01:26:49;15.70;;;8.30;;
5483;SDS011;2764;48.794;8.326;2023-09-12T01:28:03;9.63;;;7.83;;
5483;SDS011;2764;48.794;8.326;2023-09-12T01:29:08;13.97;;;7.80;;
5483;SDS011;2764;48.794;8.326;2023-09-12T01:30:14;12.10;;;8.43;;
5483;SDS011;2764;48.794;8.326;2023-09-12T01:31:19;13.80;;;7.90;;
5483;SDS011;2764;48.794;8.326;2023-09-12T01:32:20;13.90;;;8.90;;
5483;SDS011;2764;48.794;8.326;2023-09-12T01:33:22;17.17;;;8.30;;
5483;SDS011;2764;48.794;8.326;2023-09-12T01:34:24;13.30;;;8.23;;
5483;SDS011;2764;48.794;8.326;2023-09-12T01:35:26;13.93;;;9.03;;
5483;SDS011;2764;48.794;8.326;2023-09-12T01:36:28;14.37;;;9.00;;
5483;SDS011;2764;48.794;8.326;2023-09-12T01:37:31;10.10;;;9.03;;
5483;SDS011;2764;48.794;8.326;2023-09-12T01:38:33;17.53;;;8.87;;
5483;SDS011;2764;48.794;8.326;2023-09-12T01:39:34;17.73;;;9.57;;
5483;SDS011;2764;48.794;8.326;2023-09-12T01:40:42;11.43;;;8.87;;
5483;SDS011;2764;48.794;8.326;2023-09-12T01:41:48;15.70;;;8.87;;
5483;SDS011;2764;48.794;8.326;2023-09-12T01:42:54;14.53;;;8.87;;
5483;SDS011;2764;48.794;8.326;2023-09-12T01:43:59;11.60;;;8.60;;
5483;SDS011;2764;48.794;8.326;2023-09-12T01:45:03;13.17;;;10.37;;
5483;SDS011;2764;48.794;8.326;2023-09-12T01:46:06;16.10;;;8.70;;
5483;SDS011;2764;48.794;8.326;2023-09-12T01:47:08;18.47;;;8.93;;
5483;SDS011;2764;48.794;8.326;2023-09-12T01:48:11;8.83;;;8.10;;
5483;SDS011;2764;48.794;8.326;2023-09-12T01:49:15;11.20;;;8.83;;
5483;SDS011;2764;48.794;8.326;2023-09-12T01:50:20;12.90;;;8.30;;
5483;SDS011;2764;48.794;8.326;2023-09-12T01:51:23;31.10;;;8.70;;
5483;SDS011;2764;48.794;8.326;2023-09-12T01:52:26;20.97;;;9.90;;
5483;SDS011;2764;48.794;8.326;2023-09-12T01:53:29;12.83;;;8.33;;
5483;SDS011;2764;48.794;8.326;2023-09-12T01:54:32;13.87;;;8.80;;
5483;SDS011;2764;48.794;8.326;2023-09-12T01:55:36;16.57;;;9.10;;
5483;SDS011;2764;48.794;8.326;2023-09-12T01:56:38;9.73;;;7.60;;
5483;SDS011;2764;48.794;8.326;2023-09-12T01:57:41;16.77;;;9.60;;
5483;SDS011;2764;48.794;8.326;2023-09-12T01:58:43;16.80;;;8.77;;
5483;SDS011;2764;48.794;8.326;2023-09-12T01:59:45;13.60;;;8.17;;
5483;SDS011;2764;48.794;8.326;2023-09-12T02:00:47;11.83;;;9.70;;
5483;SDS011;2764;48.794;8.326;2023-09-12T02:01:48;10.90;;;8.80;;
5483;SDS011;2764;48.794;8.326;2023-09-12T02:02:50;22.10;;;9.13;;
5483;SDS011;2764;48.794;8.326;2023-09-12T02:03:53;15.13;;;8.10;;
5483;SDS011;2764;48.794;8.326;2023-09-12T02:06:11;11.47;;;7.70;;
5483;SDS011;2764;48.794;8.326;2023-09-12T02:07:13;15.63;;;8.50;;
5483;SDS011;2764;48.794;8.326;2023-09-12T02:08:15;11.90;;;8.53;;
5483;SDS011;2764;48.794;8.326;2023-09-12T02:09:16;11.00;;;7.63;;
5483;SDS011;2764;48.794;8.326;2023-09-12T02:10:18;17.33;;;10.20;;
5483;SDS011;2764;48.794;8.326;2023-09-12T02:11:20;11.40;;;8.13;;
5483;SDS011;2764;48.794;8.326;2023-09-12T02:12:22;10.90;;;8.47;;
5483;SDS011;2764;48.794;8.326;2023-09-12T02:13:23;12.50;;;8.63;;
5483;SDS011;2764;48.794;8.326;2023-09-12T02:14:25;18.00;;;8.80;;
5483;SDS011;2764;48.794;8.326;2023-09-12T02:15:27;16.67;;;8.43;;
5483;SDS011;2764;48.794;8.326;2023-09-12T02:16:30;16.13;;;8.30;;
5483;SDS011;2764;48.794;8.326;2023-09-12T02:17:33;9.17;;;7.37;;
5483;SDS011;2764;48.794;8.326;2023-09-12T02:18:35;9.53;;;7.90;;
5483;SDS011;2764;48.794;8.326;2023-09-12T02:19:36;17.50;;;9.03;;
5483;SDS011;2764;48.794;8.326;2023-09-12T02:20:40;11.97;;;8.90;;
5483;SDS011;2764;48.794;8.326;2023-09-12T02:21:42;13.23;;;8.10;;
5483;SDS011;2764;48.794;8.326;2023-09-12T02:22:44;14.27;;;9.10;;
5483;SDS011;2764;48.794;8.326;2023-09-12T02:23:46;13.10;;;8.50;;
5483;SDS011;2764;48.794;8.326;2023-09-12T02:24:48;13.47;;;8.40;;
5483;SDS011;2764;48.794;8.326;2023-09-12T02:25:50;19.67;;;9.07;;
5483;SDS011;2764;48.794;8.326;2023-09-12T02:26:52;15.43;;;8.23;;
5483;SDS011;2764;48.794;8.326;2023-09-12T02:27:54;9.63;;;7.57;;
5483;SDS011;2764;48.794;8.326;2023-09-12T02:28:55;15.57;;;8.43;;
5483;SDS011;2764;48.794;8.326;2023-09-12T02:29:58;16.33;;;8.60;;
5483;SDS011;2764;48.794;8.326;2023-09-12T02:31:00;16.43;;;8.60;;
5483;SDS011;2764;48.794;8.326;2023-09-12T02:32:01;13.03;;;8.50;;
5483;SDS011;2764;48.794;8.326;2023-09-12T02:33:04;11.63;;;9.20;;
5483;SDS011;2764;48.794;8.326;2023-09-12T02:34:05;14.07;;;9.53;;
5483;SDS011;2764;48.794;8.326;2023-09-12T02:35:07;23.80;;;8.40;;
5483;SDS011;2764;48.794;8.326;2023-09-12T02:36:09;19.20;;;9.27;;
5483;SDS011;2764;48.794;8.326;2023-09-12T02:37:11;9.60;;;7.93;;
5483;SDS011;2764;48.794;8.326;2023-09-12T02:38:13;11.90;;;8.73;;
5483;SDS011;2764;48.794;8.326;2023-09-12T02:39:15;13.80;;;8.37;;
5483;SDS011;2764;48.794;8.326;2023-09-12T02:40:17;13.63;;;8.67;;
5483;SDS011;2764;48.794;8.326;2023-09-12T02:41:19;12.70;;;8.40;;
5483;SDS011;2764;48.794;8.326;2023-09-12T02:42:22;14.37;;;8.83;;
5483;SDS011;2764;48.794;8.326;2023-09-12T02:43:25;19.83;;;9.10;;
5483;SDS011;2764;48.794;8.326;2023-09-12T02:44:27;16.03;;;8.60;;
5483;SDS011;2764;48.794;8.326;2023-09-12T02:45:29;20.50;;;9.60;;
5483;SDS011;2764;48.794;8.326;2023-09-12T02:46:30;19.03;;;9.27;;
5483;SDS011;2764;48.794;8.326;2023-09-12T02:47:32;19.13;;;9.30;;
5483;SDS011;2764;48.794;8.326;2023-09-12T02:48:34;24.37;;;9.53;;
5483;SDS011;2764;48.794;8.326;2023-09-12T02:49:35;12.20;;;8.37;;
5483;SDS011;2764;48.794;8.326;2023-09-12T02:50:37;14.80;;;7.93;;
5483;SDS011;2764;48.794;8.326;2023-09-12T02:51:39;9.73;;;8.77;;
5483;SDS011;2764;48.794;8.326;2023-09-12T02:52:41;9.37;;;8.40;;
5483;SDS011;2764;48.794;8.326;2023-09-12T02:53:42;13.93;;;9.00;;
5483;SDS011;2764;48.794;8.326;2023-09-12T02:54:44;14.93;;;9.70;;
5483;SDS011;2764;48.794;8.326;2023-09-12T02:55:46;18.23;;;9.47;;
5483;SDS011;2764;48.794;8.326;2023-09-12T02:56:48;15.70;;;10.00;;
5483;SDS011;2764;48.794;8.326;2023-09-12T02:57:49;23.50;;;10.17;;
5483;SDS011;2764;48.794;8.326;2023-09-12T02:58:51;13.80;;;8.30;;
5483;SDS011;2764;48.794;8.326;2023-09-12T02:59:52;12.40;;;9.30;;
5483;SDS011;2764;48.794;8.326;2023-09-12T03:00:54;11.70;;;9.30;;
5483;SDS011;2764;48.794;8.326;2023-09-12T03:01:56;14.40;;;8.70;;
5483;SDS011;2764;48.794;8.326;2023-09-12T03:02:58;12.40;;;9.07;;
5483;SDS011;2764;48.794;8.326;2023-09-12T03:04:00;10.30;;;8.83;;
5483;SDS011;2764;48.794;8.326;2023-09-12T03:05:02;18.67;;;9.60;;
5483;SDS011;2764;48.794;8.326;2023-09-12T03:06:04;13.13;;;9.00;;
5483;SDS011;2764;48.794;8.326;2023-09-12T03:07:06;14.10;;;8.37;;
5483;SDS011;2764;48.794;8.326;2023-09-12T03:08:07;20.60;;;10.10;;
5483;SDS011;2764;48.794;8.326;2023-09-12T03:09:09;13.07;;;9.07;;
5483;SDS011;2764;48.794;8.326;2023-09-12T03:10:12;13.87;;;9.93;;
5483;SDS011;2764;48.794;8.326;2023-09-12T03:11:15;18.83;;;8.80;;
5483;SDS011;2764;48.794;8.326;2023-09-12T03:12:17;10.47;;;8.93;;
5483;SDS011;2764;48.794;8.326;2023-09-12T03:13:19;10.13;;;8.90;;
5483;SDS011;2764;48.794;8.326;2023-09-12T03:14:21;12.77;;;8.83;;
5483;SDS011;2764;48.794;8.326;2023-09-12T03:15:23;12.73;;;9.40;;
5483;SDS011;2764;48.794;8.326;2023-09-12T03:16:24;14.20;;;9.50;;
5483;SDS011;2764;48.794;8.326;2023-09-12T03:17:28;14.83;;;9.20;;
5483;SDS011;2764;48.794;8.326;2023-09-12T03:18:30;12.90;;;8.80;;
5483;SDS011;2764;48.794;8.326;2023-09-12T03:19:32;14.20;;;9.07;;
5483;SDS011;2764;48.794;8.326;2023-09-12T03:20:37;15.50;;;8.50;;
5483;SDS011;2764;48.794;8.326;2023-09-12T03:21:39;14.07;;;9.97;;
5483;SDS011;2764;48.794;8.326;2023-09-12T03:22:41;13.57;;;8.83;;
5483;SDS011;2764;48.794;8.326;2023-09-12T03:23:44;16.03;;;9.13;;
5483;SDS011;2764;48.794;8.326;2023-09-12T03:24:46;16.00;;;9.57;;
5483;SDS011;2764;48.794;8.326;2023-09-12T03:25:48;13.73;;;9.13;;
5483;SDS011;2764;48.794;8.326;2023-09-12T03:26:50;13.23;;;9.50;;
5483;SDS011;2764;48.794;8.326;2023-09-12T03:27:52;12.10;;;8.40;;
5483;SDS011;2764;48.794;8.326;2023-09-12T03:28:54;11.80;;;9.03;;
5483;SDS011;2764;48.794;8.326;2023-09-12T03:29:56;12.10;;;9.20;;
5483;SDS011;2764;48.794;8.326;2023-09-12T03:31:05;13.80;;;8.80;;
5483;SDS011;2764;48.794;8.326;2023-09-12T03:32:09;20.40;;;9.50;;
5483;SDS011;2764;48.794;8.326;2023-09-12T03:33:11;16.47;;;8.97;;
5483;SDS011;2764;48.794;8.326;2023-09-12T03:34:13;12.90;;;8.93;;
5483;SDS011;2764;48.794;8.326;2023-09-12T03:35:15;17.60;;;9.50;;
5483;SDS011;2764;48.794;8.326;2023-09-12T03:36:16;15.00;;;8.60;;
5483;SDS011;2764;48.794;8.326;2023-09-12T03:37:19;10.83;;;9.67;;
5483;SDS011;2764;48.794;8.326;2023-09-12T03:38:21;21.60;;;9.70;;
5483;SDS011;2764;48.794;8.326;2023-09-12T03:39:22;17.97;;;9.80;;
5483;SDS011;2764;48.794;8.326;2023-09-12T03:40:24;19.97;;;10.30;;
5483;SDS011;2764;48.794;8.326;2023-09-12T03:41:26;14.77;;;8.97;;
5483;SDS011;2764;48.794;8.326;2023-09-12T03:42:27;16.87;;;9.07;;
5483;SDS011;2764;48.794;8.326;2023-09-12T03:43:42;18.17;;;9.40;;
5483;SDS011;2764;48.794;8.326;2023-09-12T03:44:44;12.60;;;8.30;;
5483;SDS011;2764;48.794;8.326;2023-09-12T03:45:46;12.20;;;8.77;;
5483;SDS011;2764;48.794;8.326;2023-09-12T03:46:48;12.33;;;8.97;;
5483;SDS011;2764;48.794;8.326;2023-09-12T03:47:51;19.03;;;9.30;;
5483;SDS011;2764;48.794;8.326;2023-09-12T03:48:53;17.13;;;10.10;;
5483;SDS011;2764;48.794;8.326;2023-09-12T03:49:54;10.67;;;9.57;;
5483;SDS011;2764;48.794;8.326;2023-09-12T03:50:56;11.10;;;9.50;;
5483;SDS011;2764;48.794;8.326;2023-09-12T03:51:58;12.60;;;9.33;;
5483;SDS011;2764;48.794;8.326;2023-09-12T03:52:59;15.93;;;9.37;;
5483;SDS011;2764;48.794;8.326;2023-09-12T03:54:01;13.50;;;8.10;;
5483;SDS011;2764;48.794;8.326;2023-09-12T03:55:04;11.00;;;8.83;;
5483;SDS011;2764;48.794;8.326;2023-09-12T03:56:06;11.47;;;8.33;;
5483;SDS011;2764;48.794;8.326;2023-09-12T03:57:07;14.53;;;9.10;;
5483;SDS011;2764;48.794;8.326;2023-09-12T03:58:10;13.70;;;9.60;;
5483;SDS011;2764;48.794;8.326;2023-09-12T03:59:11;20.07;;;9.03;;
5483;SDS011;2764;48.794;8.326;2023-09-12T04:00:13;10.50;;;9.43;;
5483;SDS011;2764;48.794;8.326;2023-09-12T04:01:16;13.17;;;9.20;;
5483;SDS011;2764;48.794;8.326;2023-09-12T04:02:18;14.23;;;9.17;;
5483;SDS011;2764;48.794;8.326;2023-09-12T04:03:20;13.53;;;9.23;;
5483;SDS011;2764;48.794;8.326;2023-09-12T04:04:22;14.10;;;8.87;;
5483;SDS011;2764;48.794;8.326;2023-09-12T04:05:25;11.67;;;8.90;;
5483;SDS011;2764;48.794;8.326;2023-09-12T04:06:27;13.30;;;9.07;;
5483;SDS011;2764;48.794;8.326;2023-09-12T04:07:29;10.37;;;8.63;;
5483;SDS011;2764;48.794;8.326;2023-09-12T04:08:30;18.23;;;9.27;;
5483;SDS011;2764;48.794;8.326;2023-09-12T04:09:33;13.10;;;10.00;;
5483;SDS011;2764;48.794;8.326;2023-09-12T04:10:35;25.57;;;9.67;;
5483;SDS011;2764;48.794;8.326;2023-09-12T04:11:37;11.20;;;8.87;;
5483;SDS011;2764;48.794;8.326;2023-09-12T04:12:47;15.53;;;9.40;;
5483;SDS011;2764;48.794;8.326;2023-09-12T04:13:49;9.47;;;8.57;;
5483;SDS011;2764;48.794;8.326;2023-09-12T04:14:52;14.40;;;8.67;;
5483;SDS011;2764;48.794;8.326;2023-09-12T04:15:53;15.10;;;9.07;;
5483;SDS011;2764;48.794;8.326;2023-09-12T04:16:56;16.90;;;8.73;;
5483;SDS011;2764;48.794;8.326;2023-09-12T04:17:57;17.57;;;9.80;;
5483;SDS011;2764;48.794;8.326;2023-09-12T04:18:59;11.63;;;8.60;;
5483;SDS011;2764;48.794;8.326;2023-09-12T04:20:01;11.37;;;9.50;;
5483;SDS011;2764;48.794;8.326;2023-09-12T04:21:03;17.53;;;8.80;;
5483;SDS011;2764;48.794;8.326;2023-09-12T04:22:05;11.37;;;9.67;;
5483;SDS011;2764;48.794;8.326;2023-09-12T04:23:07;17.67;;;9.20;;
5483;SDS011;2764;48.794;8.326;2023-09-12T04:24:09;14.40;;;10.30;;
5483;SDS011;2764;48.794;8.326;2023-09-12T04:25:11;14.40;;;9.83;;
5483;SDS011;2764;48.794;8.326;2023-09-12T04:26:13;11.60;;;8.83;;
5483;SDS011;2764;48.794;8.326;2023-09-12T04:27:15;18.67;;;9.57;;
5483;SDS011;2764;48.794;8.326;2023-09-12T04:28:17;17.73;;;9.73;;
5483;SDS011;2764;48.794;8.326;2023-09-12T04:29:19;12.67;;;9.03;;
5483;SDS011;2764;48.794;8.326;2023-09-12T04:30:20;20.10;;;10.73;;
5483;SDS011;2764;48.794;8.326;2023-09-12T04:31:23;20.60;;;10.17;;
5483;SDS011;2764;48.794;8.326;2023-09-12T04:32:25;15.23;;;9.57;;
5483;SDS011;2764;48.794;8.326;2023-09-12T04:33:27;11.03;;;9.17;;
5483;SDS011;2764;48.794;8.326;2023-09-12T04:34:29;10.80;;;9.13;;
5483;SDS011;2764;48.794;8.326;2023-09-12T04:35:34;12.90;;;9.50;;
5483;SDS011;2764;48.794;8.326;2023-09-12T04:36:36;20.33;;;9.27;;
5483;SDS011;2764;48.794;8.326;2023-09-12T04:37:38;11.13;;;9.97;;
5483;SDS011;2764;48.794;8.326;2023-09-12T04:38:40;21.27;;;11.03;;
5483;SDS011;2764;48.794;8.326;2023-09-12T04:39:42;19.23;;;11.20;;
5483;SDS011;2764;48.794;8.326;2023-09-12T04:40:52;11.73;;;10.60;;
5483;SDS011;2764;48.794;8.326;2023-09-12T04:41:54;12.57;;;11.00;;
5483;SDS011;2764;48.794;8.326;2023-09-12T04:42:56;15.07;;;10.37;;
5483;SDS011;2764;48.794;8.326;2023-09-12T04:43:58;18.10;;;11.27;;
5483;SDS011;2764;48.794;8.326;2023-09-12T04:45:02;17.40;;;11.10;;
5483;SDS011;2764;48.794;8.326;2023-09-12T04:46:04;15.10;;;10.23;;
5483;SDS011;2764;48.794;8.326;2023-09-12T04:47:06;14.70;;;10.47;;
5483;SDS011;2764;48.794;8.326;2023-09-12T04:48:09;15.53;;;10.40;;
5483;SDS011;2764;48.794;8.326;2023-09-12T04:49:11;16.73;;;10.33;;
5483;SDS011;2764;48.794;8.326;2023-09-12T04:50:13;12.03;;;9.37;;
5483;SDS011;2764;48.794;8.326;2023-09-12T04:51:17;18.10;;;10.53;;
5483;SDS011;2764;48.794;8.326;2023-09-12T04:52:19;15.90;;;10.07;;
5483;SDS011;2764;48.794;8.326;2023-09-12T04:53:20;12.73;;;10.37;;
5483;SDS011;2764;48.794;8.326;2023-09-12T04:54:22;12.73;;;9.53;;
5483;SDS011;2764;48.794;8.326;2023-09-12T04:55:24;16.77;;;10.50;;
5483;SDS011;2764;48.794;8.326;2023-09-12T04:56:26;21.27;;;11.70;;
5483;SDS011;2764;48.794;8.326;2023-09-12T04:57:27;18.90;;;12.20;;
5483;SDS011;2764;48.794;8.326;2023-09-12T04:58:32;16.63;;;11.40;;
5483;SDS011;2764;48.794;8.326;2023-09-12T04:59:34;19.13;;;10.17;;
5483;SDS011;2764;48.794;8.326;2023-09-12T05:00:36;14.10;;;9.70;;
5483;SDS011;2764;48.794;8.326;2023-09-12T05:01:41;13.30;;;10.30;;
5483;SDS011;2764;48.794;8.326;2023-09-12T05:02:42;19.40;;;10.33;;
5483;SDS011;2764;48.794;8.326;2023-09-12T05:03:45;16.43;;;10.70;;
5483;SDS011;2764;48.794;8.326;2023-09-12T05:04:47;16.70;;;10.83;;
5483;SDS011;2764;48.794;8.326;2023-09-12T05:05:49;11.60;;;10.20;;
5483;SDS011;2764;48.794;8.326;2023-09-12T05:06:52;12.00;;;10.70;;
5483;SDS011;2764;48.794;8.326;2023-09-12T05:07:54;12.10;;;10.90;;
5483;SDS011;2764;48.794;8.326;2023-09-12T05:08:57;13.37;;;9.63;;
5483;SDS011;2764;48.794;8.326;2023-09-12T05:09:59;14.03;;;10.90;;
5483;SDS011;2764;48.794;8.326;2023-09-12T05:11:01;20.07;;;11.10;;
5483;SDS011;2764;48.794;8.326;2023-09-12T05:12:04;13.77;;;10.27;;
5483;SDS011;2764;48.794;8.326;2023-09-12T05:13:06;12.83;;;10.77;;
5483;SDS011;2764;48.794;8.326;2023-09-12T05:14:08;13.80;;;10.33;;
5483;SDS011;2764;48.794;8.326;2023-09-12T05:15:10;12.20;;;10.50;;
5483;SDS011;2764;48.794;8.326;2023-09-12T05:16:12;12.50;;;9.90;;
5483;SDS011;2764;48.794;8.326;2023-09-12T05:17:13;13.80;;;10.40;;
5483;SDS011;2764;48.794;8.326;2023-09-12T05:18:15;14.30;;;10.90;;
5483;SDS011;2764;48.794;8.326;2023-09-12T05:19:17;14.30;;;10.80;;
5483;SDS011;2764;48.794;8.326;2023-09-12T05:20:19;14.60;;;10.73;;
5483;SDS011;2764;48.794;8.326;2023-09-12T05:21:21;13.87;;;9.83;;
5483;SDS011;2764;48.794;8.326;2023-09-12T05:22:23;10.67;;;9.63;;
5483;SDS011;2764;48.794;8.326;2023-09-12T05:23:24;20.90;;;10.80;;
5483;SDS011;2764;48.794;8.326;2023-09-12T05:24:29;20.67;;;11.43;;
5483;SDS011;2764;48.794;8.326;2023-09-12T05:25:30;12.47;;;11.00;;
5483;SDS011;2764;48.794;8.326;2023-09-12T05:26:32;12.53;;;9.80;;
5483;SDS011;2764;48.794;8.326;2023-09-12T05:27:34;13.17;;;10.63;;
5483;SDS011;2764;48.794;8.326;2023-09-12T05:28:36;17.57;;;10.97;;
5483;SDS011;2764;48.794;8.326;2023-09-12T05:29:38;13.70;;;10.60;;
5483;SDS011;2764;48.794;8.326;2023-09-12T05:30:43;12.10;;;10.70;;
5483;SDS011;2764;48.794;8.326;2023-09-12T05:31:45;17.90;;;11.03;;
5483;SDS011;2764;48.794;8.326;2023-09-12T05:32:47;15.63;;;10.87;;
5483;SDS011;2764;48.794;8.326;2023-09-12T05:33:50;13.83;;;11.10;;
5483;SDS011;2764;48.794;8.326;2023-09-12T05:34:51;13.97;;;11.57;;
5483;SDS011;2764;48.794;8.326;2023-09-12T05:36:07;14.23;;;11.03;;
5483;SDS011;2764;48.794;8.326;2023-09-12T05:37:09;16.23;;;12.03;;
5483;SDS011;2764;48.794;8.326;2023-09-12T05:38:11;20.20;;;11.80;;
5483;SDS011;2764;48.794;8.326;2023-09-12T05:39:12;18.90;;;11.53;;
5483;SDS011;2764;48.794;8.326;2023-09-12T05:40:15;15.77;;;11.90;;
5483;SDS011;2764;48.794;8.326;2023-09-12T05:41:17;13.97;;;11.80;;
5483;SDS011;2764;48.794;8.326;2023-09-12T05:42:18;18.00;;;11.47;;
5483;SDS011;2764;48.794;8.326;2023-09-12T05:43:22;15.20;;;11.40;;
5483;SDS011;2764;48.794;8.326;2023-09-12T05:44:24;15.07;;;11.77;;
5483;SDS011;2764;48.794;8.326;2023-09-12T05:45:26;15.13;;;11.63;;
5483;SDS011;2764;48.794;8.326;2023-09-12T05:46:30;12.80;;;10.87;;
5483;SDS011;2764;48.794;8.326;2023-09-12T05:47:32;22.70;;;11.30;;
5483;SDS011;2764;48.794;8.326;2023-09-12T05:48:33;16.20;;;11.70;;
5483;SDS011;2764;48.794;8.326;2023-09-12T05:49:35;16.97;;;12.13;;
5483;SDS011;2764;48.794;8.326;2023-09-12T05:50:37;28.00;;;10.83;;
5483;SDS011;2764;48.794;8.326;2023-09-12T05:51:38;16.90;;;11.70;;
5483;SDS011;2764;48.794;8.326;2023-09-12T05:52:40;14.30;;;11.27;;
5483;SDS011;2764;48.794;8.326;2023-09-12T05:53:43;19.57;;;10.97;;
5483;SDS011;2764;48.794;8.326;2023-09-12T05:54:45;20.93;;;11.70;;
5483;SDS011;2764;48.794;8.326;2023-09-12T05:55:47;16.53;;;11.67;;
5483;SDS011;2764;48.794;8.326;2023-09-12T05:56:49;16.30;;;12.60;;
5483;SDS011;2764;48.794;8.326;2023-09-12T05:57:51;16.80;;;10.70;;
5483;SDS011;2764;48.794;8.326;2023-09-12T05:58:55;21.80;;;11.87;;
5483;SDS011;2764;48.794;8.326;2023-09-12T05:59:57;16.10;;;11.70;;
5483;SDS011;2764;48.794;8.326;2023-09-12T06:01:03;15.40;;;11.87;;
5483;SDS011;2764;48.794;8.326;2023-09-12T06:02:06;19.93;;;12.60;;
5483;SDS011;2764;48.794;8.326;2023-09-12T06:03:13;24.57;;;11.20;;
5483;SDS011;2764;48.794;8.326;2023-09-12T06:04:16;17.63;;;10.60;;
5483;SDS011;2764;48.794;8.326;2023-09-12T06:05:18;31.77;;;11.30;;
5483;SDS011;2764;48.794;8.326;2023-09-12T06:06:20;13.70;;;10.93;;
5483;SDS011;2764;48.794;8.326;2023-09-12T06:07:22;14.13;;;10.70;;
5483;SDS011;2764;48.794;8.326;2023-09-12T06:08:24;14.47;;;10.83;;
5483;SDS011;2764;48.794;8.326;2023-09-12T06:09:26;15.50;;;10.70;;
5483;SDS011;2764;48.794;8.326;2023-09-12T06:10:27;14.60;;;10.17;;
5483;SDS011;2764;48.794;8.326;2023-09-12T06:11:29;12.60;;;10.37;;
5483;SDS011;2764;48.794;8.326;2023-09-12T06:12:33;13.10;;;10.00;;
5483;SDS011;2764;48.794;8.326;2023-09-12T06:13:37;26.20;;;11.20;;
5483;SDS011;2764;48.794;8.326;2023-09-12T06:14:39;11.03;;;9.57;;
5483;SDS011;2764;48.794;8.326;2023-09-12T06:15:40;16.13;;;10.20;;
5483;SDS011;2764;48.794;8.326;2023-09-12T06:16:43;12.33;;;10.10;;
5483;SDS011;2764;48.794;8.326;2023-09-12T06:17:45;12.47;;;9.37;;
5483;SDS011;2764;48.794;8.326;2023-09-12T06:18:46;13.30;;;10.17;;
5483;SDS011;2764;48.794;8.326;2023-09-12T06:19:50;17.70;;;10.07;;
5483;SDS011;2764;48.794;8.326;2023-09-12T06:20:52;10.43;;;8.50;;
5483;SDS011;2764;48.794;8.326;2023-09-12T06:21:54;14.00;;;9.80;;
5483;SDS011;2764;48.794;8.326;2023-09-12T06:22:57;14.83;;;9.30;;
5483;SDS011;2764;48.794;8.326;2023-09-12T06:24:16;18.80;;;9.57;;
5483;SDS011;2764;48.794;8.326;2023-09-12T06:25:20;15.57;;;8.80;;
5483;SDS011;2764;48.794;8.326;2023-09-12T06:26:22;12.63;;;8.57;;